createdAt,value
2018-05-23T00:00:20.367Z,15.75
2018-05-23T00:01:30.370Z,15.69
2018-05-23T00:02:40.357Z,15.78
2018-05-23T00:03:50.324Z,15.73
2018-05-23T00:05:00.047Z,15.72
2018-05-23T00:06:09.769Z,15.66
2018-05-23T00:07:19.490Z,15.59
2018-05-23T00:08:29.211Z,15.59
2018-05-23T00:09:39.179Z,15.55
2018-05-23T00:10:49.166Z,15.54
2018-05-23T00:11:59.161Z,15.5
2018-05-23T00:13:09.132Z,15.51
2018-05-23T00:14:19.111Z,15.52
2018-05-23T00:15:28.814Z,15.45
2018-05-23T00:16:38.535Z,15.43
2018-05-23T00:17:48.500Z,15.39
2018-05-23T00:18:58.220Z,15.37
2018-05-23T00:20:08.186Z,15.35
2018-05-23T00:21:17.893Z,15.35
2018-05-23T00:22:27.611Z,15.36
2018-05-23T00:23:37.576Z,15.29
2018-05-23T00:24:47.552Z,15.29
2018-05-23T00:25:57.552Z,15.26
2018-05-23T00:27:07.526Z,15.26
2018-05-23T00:28:17.229Z,15.26
2018-05-23T00:29:26.940Z,15.29
2018-05-23T00:30:36.918Z,15.27
2018-05-23T00:31:46.630Z,15.26
2018-05-23T00:32:56.616Z,15.25
2018-05-23T00:34:06.613Z,15.23
2018-05-23T00:35:16.594Z,15.17
2018-05-23T00:36:26.339Z,15.18
2018-05-23T00:37:36.310Z,15.19
2018-05-23T00:38:46.030Z,15.12
2018-05-23T00:39:56.000Z,15.12
2018-05-23T00:41:05.725Z,15.1
2018-05-23T00:42:15.702Z,15.1
2018-05-23T00:43:25.667Z,14.97
2018-05-23T00:44:35.650Z,15
2018-05-23T00:45:45.361Z,15
2018-05-23T00:46:55.339Z,15
2018-05-23T00:48:05.313Z,15.02
2018-05-23T00:49:15.297Z,14.97
2018-05-23T00:50:25.548Z,14.96
2018-05-23T00:51:35.528Z,14.93
2018-05-23T00:52:45.556Z,15.04
2018-05-23T00:53:55.259Z,14.87
2018-05-23T00:55:04.973Z,14.93
2018-05-23T00:56:14.686Z,14.94
2018-05-23T00:57:24.398Z,14.96
2018-05-23T00:58:34.361Z,14.85
2018-05-23T00:59:44.339Z,14.89
2018-05-23T01:00:54.302Z,14.85
2018-05-23T01:02:04.277Z,14.87
2018-05-23T01:03:14.254Z,14.86
2018-05-23T01:04:23.968Z,14.79
2018-05-23T01:05:33.947Z,14.74
2018-05-23T01:06:43.924Z,14.81
2018-05-23T01:07:53.885Z,14.77
2018-05-23T01:09:03.861Z,14.77
2018-05-23T01:10:13.845Z,14.67
2018-05-23T01:11:23.824Z,14.78
2018-05-23T01:12:33.792Z,14.66
2018-05-23T01:13:43.760Z,14.62
2018-05-23T01:14:53.596Z,14.66
2018-05-23T01:16:03.048Z,14.59
2018-05-23T01:17:13.018Z,14.53
2018-05-23T01:18:22.747Z,14.55
2018-05-23T01:19:32.462Z,14.55
2018-05-23T01:20:42.442Z,14.45
2018-05-23T01:21:52.473Z,14.48
2018-05-23T01:23:02.440Z,14.48
2018-05-23T01:24:12.428Z,14.38
2018-05-23T01:25:22.154Z,14.34
2018-05-23T01:26:31.871Z,14.41
2018-05-23T01:27:41.842Z,14.31
2018-05-23T01:28:51.823Z,14.31
2018-05-23T01:30:01.535Z,14.36
2018-05-23T01:31:11.503Z,14.25
2018-05-23T01:32:21.214Z,14.23
2018-05-23T01:33:31.259Z,14.3
2018-05-23T01:34:41.242Z,14.34
2018-05-23T01:35:51.229Z,14.28
2018-05-23T01:37:01.214Z,14.23
2018-05-23T01:38:11.207Z,14.2
2018-05-23T01:39:20.942Z,14.26
2018-05-23T01:40:30.390Z,14.2
2018-05-23T01:41:40.352Z,14.22
2018-05-23T01:42:50.058Z,14.23
2018-05-23T01:44:00.018Z,14.18
2018-05-23T01:45:09.988Z,14.2
2018-05-23T01:46:19.451Z,14.08
2018-05-23T01:47:29.423Z,14.04
2018-05-23T01:48:39.392Z,14.04
2018-05-23T01:49:49.371Z,14.01
2018-05-23T01:50:59.338Z,14.03
2018-05-23T01:52:09.312Z,14
2018-05-23T01:53:19.282Z,13.98
2018-05-23T01:54:29.250Z,14.05
2018-05-23T01:55:39.225Z,13.94
2018-05-23T01:56:49.234Z,14
2018-05-23T01:57:58.950Z,13.93
2018-05-23T01:59:08.677Z,13.86
2018-05-23T02:00:18.667Z,13.93
2018-05-23T02:01:28.645Z,13.87
2018-05-23T02:02:38.617Z,13.95
2018-05-23T02:03:48.611Z,13.83
2018-05-23T02:04:58.799Z,13.79
2018-05-23T02:06:08.512Z,13.71
2018-05-23T02:07:17.697Z,13.75
2018-05-23T02:08:27.665Z,13.79
2018-05-23T02:09:37.656Z,13.82
2018-05-23T02:10:47.617Z,13.7
2018-05-23T02:11:57.575Z,13.71
2018-05-23T02:13:07.381Z,13.67
2018-05-23T02:14:17.089Z,13.7
2018-05-23T02:15:26.804Z,13.7
2018-05-23T02:16:36.778Z,13.65
2018-05-23T02:17:46.758Z,13.62
2018-05-23T02:18:56.463Z,13.68
2018-05-23T02:20:06.186Z,13.64
2018-05-23T02:21:16.213Z,13.65
2018-05-23T02:22:26.268Z,13.64
2018-05-23T02:23:36.232Z,13.55
2018-05-23T02:24:45.944Z,13.55
2018-05-23T02:25:55.901Z,13.58
2018-05-23T02:27:05.869Z,13.54
2018-05-23T02:28:15.577Z,13.46
2018-05-23T02:29:25.553Z,13.49
2018-05-23T02:30:35.535Z,13.47
2018-05-23T02:31:45.285Z,13.46
2018-05-23T02:32:55.014Z,13.49
2018-05-23T02:34:04.992Z,13.45
2018-05-23T02:35:14.973Z,13.43
2018-05-23T02:36:24.947Z,13.43
2018-05-23T02:37:34.679Z,13.42
2018-05-23T02:38:44.130Z,13.31
2018-05-23T02:39:54.105Z,13.45
2018-05-23T02:41:04.081Z,13.39
2018-05-23T02:42:13.540Z,13.33
2018-05-23T02:43:23.521Z,13.36
2018-05-23T02:44:32.987Z,13.36
2018-05-23T02:45:42.977Z,13.36
2018-05-23T02:46:52.977Z,13.45
2018-05-23T02:48:03.061Z,13.36
2018-05-23T02:49:12.791Z,13.39
2018-05-23T02:50:22.757Z,13.31
2018-05-23T02:51:32.729Z,13.2
2018-05-23T02:52:42.721Z,13.26
2018-05-23T02:53:52.694Z,13.23
2018-05-23T02:55:02.157Z,13.2
2018-05-23T02:56:12.137Z,13.3
2018-05-23T02:57:22.164Z,13.28
2018-05-23T02:58:31.883Z,13.3
2018-05-23T02:59:41.633Z,13.28
2018-05-23T03:00:51.347Z,13.23
2018-05-23T03:02:01.433Z,13.28
2018-05-23T03:03:11.477Z,13.24
2018-05-23T03:04:21.445Z,13.21
2018-05-23T03:05:30.644Z,13.24
2018-05-23T03:06:40.356Z,13.24
2018-05-23T03:07:50.071Z,13.24
2018-05-23T03:09:00.034Z,13.2
2018-05-23T03:10:09.867Z,13.2
2018-05-23T03:11:19.587Z,13.26
2018-05-23T03:12:29.304Z,13.27
2018-05-23T03:13:39.013Z,13.23
2018-05-23T03:14:49.015Z,13.3
2018-05-23T03:15:59.013Z,13.31
2018-05-23T03:17:08.986Z,13.3
2018-05-23T03:18:18.701Z,13.31
2018-05-23T03:19:28.666Z,13.4
2018-05-23T03:20:38.377Z,13.27
2018-05-23T03:21:48.341Z,13.39
2018-05-23T03:22:58.455Z,13.36
2018-05-23T03:24:08.430Z,13.42
2018-05-23T03:25:18.399Z,13.31
2018-05-23T03:26:28.374Z,13.33
2018-05-23T03:27:38.352Z,13.31
2018-05-23T03:28:48.404Z,13.36
2018-05-23T03:29:58.372Z,13.37
2018-05-23T03:31:08.338Z,13.39
2018-05-23T03:32:18.051Z,13.4
2018-05-23T03:33:28.044Z,13.33
2018-05-23T03:34:38.037Z,13.36
2018-05-23T03:35:47.745Z,13.31
2018-05-23T03:36:57.716Z,13.39
2018-05-23T03:38:07.721Z,13.39
2018-05-23T03:39:17.688Z,13.37
2018-05-23T03:40:27.404Z,13.33
2018-05-23T03:41:37.377Z,13.37
2018-05-23T03:42:47.352Z,13.4
2018-05-23T03:43:57.327Z,13.36
2018-05-23T03:45:07.322Z,13.31
2018-05-23T03:46:17.300Z,13.39
2018-05-23T03:47:27.279Z,13.31
2018-05-23T03:48:37.251Z,13.37
2018-05-23T03:49:46.950Z,13.39
2018-05-23T03:50:56.671Z,13.43
2018-05-23T03:52:06.655Z,13.39
2018-05-23T03:53:16.635Z,13.46
2018-05-23T03:54:26.432Z,13.37
2018-05-23T03:55:36.409Z,13.43
2018-05-23T03:56:46.125Z,13.37
2018-05-23T03:57:55.839Z,13.37
2018-05-23T03:59:05.548Z,13.36
2018-05-23T04:00:15.269Z,13.37
2018-05-23T04:01:25.240Z,13.43
2018-05-23T04:02:35.208Z,13.43
2018-05-23T04:03:45.218Z,13.43
2018-05-23T04:04:55.242Z,13.45
2018-05-23T04:06:04.892Z,13.45
2018-05-23T04:07:14.880Z,13.47
2018-05-23T04:08:24.859Z,13.55
2018-05-23T04:09:34.906Z,13.49
2018-05-23T04:10:45.045Z,13.55
2018-05-23T04:11:55.044Z,13.58
2018-05-23T04:13:05.093Z,13.62
2018-05-23T04:14:14.800Z,13.62
2018-05-23T04:15:24.929Z,13.65
2018-05-23T04:16:35.133Z,13.67
2018-05-23T04:17:44.591Z,13.64
2018-05-23T04:18:54.562Z,13.68
2018-05-23T04:20:04.025Z,13.78
2018-05-23T04:21:14.001Z,13.78
2018-05-23T04:22:23.981Z,13.76
2018-05-23T04:23:33.946Z,13.93
2018-05-23T04:24:43.775Z,13.93
2018-05-23T04:25:53.965Z,13.94
2018-05-23T04:27:03.945Z,13.95
2018-05-23T04:28:13.664Z,14
2018-05-23T04:29:23.376Z,13.98
2018-05-23T04:30:32.828Z,13.94
2018-05-23T04:31:42.800Z,13.93
2018-05-23T04:32:52.766Z,14
2018-05-23T04:34:02.492Z,14.01
2018-05-23T04:35:12.465Z,14.07
2018-05-23T04:36:21.923Z,14.13
2018-05-23T04:37:31.975Z,14.18
2018-05-23T04:38:41.948Z,14.15
2018-05-23T04:39:51.925Z,14.22
2018-05-23T04:41:01.981Z,14.26
2018-05-23T04:42:11.695Z,14.25
2018-05-23T04:43:21.674Z,14.33
2018-05-23T04:44:31.402Z,14.31
2018-05-23T04:45:41.372Z,14.36
2018-05-23T04:46:51.340Z,14.44
2018-05-23T04:48:01.324Z,14.43
2018-05-23T04:49:11.308Z,14.53
2018-05-23T04:50:21.296Z,14.53
2018-05-23T04:51:31.258Z,14.56
2018-05-23T04:52:41.227Z,14.62
2018-05-23T04:53:51.198Z,14.71
2018-05-23T04:55:01.177Z,14.71
2018-05-23T04:56:10.640Z,14.77
2018-05-23T04:57:20.620Z,14.82
2018-05-23T04:58:30.604Z,14.82
2018-05-23T04:59:40.570Z,14.81
2018-05-23T05:00:50.547Z,14.89
2018-05-23T05:02:00.527Z,14.89
2018-05-23T05:03:10.512Z,14.89
2018-05-23T05:04:20.488Z,15.02
2018-05-23T05:05:30.550Z,15.04
2018-05-23T05:06:40.529Z,15.04
2018-05-23T05:07:50.497Z,15.12
2018-05-23T05:09:00.486Z,15.15
2018-05-23T05:10:10.784Z,15.17
2018-05-23T05:11:20.747Z,15.23
2018-05-23T05:12:30.727Z,15.23
2018-05-23T05:13:40.908Z,15.27
2018-05-23T05:14:50.933Z,15.29
2018-05-23T05:16:00.659Z,15.39
2018-05-23T05:17:10.377Z,15.33
2018-05-23T05:18:20.348Z,15.39
2018-05-23T05:19:29.799Z,15.43
2018-05-23T05:20:39.772Z,15.51
2018-05-23T05:21:49.492Z,15.48
2018-05-23T05:22:59.476Z,15.45
2018-05-23T05:24:09.235Z,15.57
2018-05-23T05:25:19.238Z,15.59
2018-05-23T05:26:29.227Z,15.62
2018-05-23T05:27:38.952Z,15.69
2018-05-23T05:28:48.954Z,15.75
2018-05-23T05:29:58.933Z,15.81
2018-05-23T05:31:08.945Z,15.8
2018-05-23T05:32:18.671Z,15.84
2018-05-23T05:33:28.399Z,15.84
2018-05-23T05:34:38.367Z,16
2018-05-23T05:35:48.417Z,16
2018-05-23T05:36:58.129Z,16.02
2018-05-23T05:38:07.868Z,16.02
2018-05-23T05:39:17.593Z,16.09
2018-05-23T05:40:27.715Z,16.12
2018-05-23T05:41:37.759Z,16.25
2018-05-23T05:42:47.761Z,16.24
2018-05-23T05:43:57.782Z,16.34
2018-05-23T05:45:07.784Z,16.31
2018-05-23T05:46:17.777Z,16.36
2018-05-23T05:47:27.514Z,16.46
2018-05-23T05:48:37.229Z,16.47
2018-05-23T05:49:47.224Z,16.49
2018-05-23T05:50:57.333Z,16.54
2018-05-23T05:52:07.324Z,16.5
2018-05-23T05:53:17.316Z,16.61
2018-05-23T05:54:27.041Z,16.73
2018-05-23T05:55:37.018Z,16.73
2018-05-23T05:56:46.999Z,16.79
2018-05-23T05:57:56.968Z,16.83
2018-05-23T05:59:06.942Z,16.89
2018-05-23T06:00:16.950Z,16.99
2018-05-23T06:01:26.678Z,17.1
2018-05-23T06:02:36.650Z,16.97
2018-05-23T06:03:46.627Z,17.1
2018-05-23T06:04:56.595Z,17.16
2018-05-23T06:06:06.589Z,17.23
2018-05-23T06:07:16.312Z,17.2
2018-05-23T06:08:26.290Z,17.3
2018-05-23T06:09:36.465Z,17.28
2018-05-23T06:10:46.400Z,17.35
2018-05-23T06:11:56.156Z,17.35
2018-05-23T06:13:06.175Z,17.52
2018-05-23T06:14:15.911Z,17.5
2018-05-23T06:15:25.640Z,17.49
2018-05-23T06:16:35.390Z,17.66
2018-05-23T06:17:44.828Z,17.65
2018-05-23T06:18:54.552Z,17.72
2018-05-23T06:20:04.538Z,17.68
2018-05-23T06:21:14.263Z,17.69
2018-05-23T06:22:24.540Z,17.78
2018-05-23T06:23:34.382Z,17.86
2018-05-23T06:24:44.421Z,17.91
2018-05-23T06:25:54.394Z,18
2018-05-23T06:27:04.145Z,18.03
2018-05-23T06:28:14.117Z,18.09
2018-05-23T06:29:23.833Z,18.16
2018-05-23T06:30:33.952Z,18.12
2018-05-23T06:31:43.720Z,18.12
2018-05-23T06:32:53.778Z,18.19
2018-05-23T06:34:03.791Z,18.21
2018-05-23T06:35:13.816Z,18.33
2018-05-23T06:36:23.903Z,18.37
2018-05-23T06:37:33.687Z,18.37
2018-05-23T06:38:43.674Z,18.43
2018-05-23T06:39:53.661Z,18.51
2018-05-23T06:41:03.374Z,18.58
2018-05-23T06:42:12.834Z,18.63
2018-05-23T06:43:22.568Z,18.57
2018-05-23T06:44:32.365Z,18.78
2018-05-23T06:45:42.086Z,18.76
2018-05-23T06:46:52.086Z,18.83
2018-05-23T06:48:02.102Z,18.92
2018-05-23T06:49:12.126Z,19.01
2018-05-23T06:50:22.212Z,19.04
2018-05-23T06:51:31.775Z,19.11
2018-05-23T06:52:41.985Z,19.19
2018-05-23T06:53:51.962Z,19.23
2018-05-23T06:55:01.960Z,19.35
2018-05-23T06:56:11.928Z,19.35
2018-05-23T06:57:21.938Z,19.42
2018-05-23T06:58:31.920Z,19.52
2018-05-23T06:59:41.394Z,19.56
2018-05-23T07:00:51.362Z,19.55
2018-05-23T07:02:01.101Z,19.64
2018-05-23T07:03:11.071Z,19.7
2018-05-23T07:04:21.074Z,19.79
2018-05-23T07:05:31.066Z,19.77
2018-05-23T07:06:40.537Z,19.89
2018-05-23T07:07:50.528Z,19.92
2018-05-23T07:08:59.730Z,20.04
2018-05-23T07:10:09.710Z,20.03
2018-05-23T07:11:19.828Z,20.14
2018-05-23T07:12:29.537Z,20.21
2018-05-23T07:13:39.568Z,20.27
2018-05-23T07:14:49.293Z,20.33
2018-05-23T07:15:59.279Z,20.32
2018-05-23T07:17:08.759Z,20.36
2018-05-23T07:18:18.800Z,20.32
2018-05-23T07:19:28.795Z,20.44
2018-05-23T07:20:38.511Z,20.52
2018-05-23T07:21:48.014Z,20.64
2018-05-23T07:22:57.763Z,20.66
2018-05-23T07:24:08.158Z,20.67
2018-05-23T07:25:18.155Z,20.78
2018-05-23T07:26:28.130Z,20.88
2018-05-23T07:27:38.124Z,20.88
2018-05-23T07:28:47.854Z,20.9
2018-05-23T07:29:57.890Z,21.05
2018-05-23T07:31:07.522Z,21.11
2018-05-23T07:32:17.512Z,21.13
2018-05-23T07:33:27.245Z,21.13
2018-05-23T07:34:37.238Z,21.25
2018-05-23T07:35:47.243Z,21.23
2018-05-23T07:36:57.234Z,21.29
2018-05-23T07:38:07.220Z,21.3
2018-05-23T07:39:16.936Z,21.38
2018-05-23T07:40:26.918Z,21.4
2018-05-23T07:41:36.916Z,21.43
2018-05-23T07:42:46.894Z,21.43
2018-05-23T07:43:56.882Z,21.48
2018-05-23T07:45:06.877Z,21.47
2018-05-23T07:46:16.872Z,21.53
2018-05-23T07:47:26.597Z,21.62
2018-05-23T07:48:36.606Z,21.75
2018-05-23T07:49:46.591Z,21.72
2018-05-23T07:50:56.569Z,21.72
2018-05-23T07:52:06.559Z,21.83
2018-05-23T07:53:16.576Z,21.77
2018-05-23T07:54:26.559Z,21.89
2018-05-23T07:55:36.294Z,21.83
2018-05-23T07:56:46.582Z,21.99
2018-05-23T07:57:56.418Z,22.06
2018-05-23T07:59:06.452Z,22.01
2018-05-23T08:00:16.488Z,22.01
2018-05-23T08:01:26.499Z,22.18
2018-05-23T08:02:36.503Z,22.16
2018-05-23T08:03:46.272Z,22.15
2018-05-23T08:04:55.993Z,22.18
2018-05-23T08:06:05.971Z,22.15
2018-05-23T08:07:15.715Z,22.31
2018-05-23T08:08:25.433Z,22.34
2018-05-23T08:09:35.412Z,22.4
2018-05-23T08:10:45.407Z,22.52
2018-05-23T08:11:55.398Z,22.59
2018-05-23T08:13:05.395Z,22.49
2018-05-23T08:14:15.116Z,22.59
2018-05-23T08:15:24.596Z,22.73
2018-05-23T08:16:34.784Z,22.68
2018-05-23T08:17:44.496Z,22.7
2018-05-23T08:18:54.503Z,22.71
2018-05-23T08:20:04.233Z,22.78
2018-05-23T08:21:14.218Z,22.77
2018-05-23T08:22:24.161Z,22.92
2018-05-23T08:23:34.169Z,23.01
2018-05-23T08:24:43.922Z,22.98
2018-05-23T08:25:53.927Z,23.07
2018-05-23T08:27:03.901Z,23.17
2018-05-23T08:28:13.895Z,23.23
2018-05-23T08:29:23.884Z,23.21
2018-05-23T08:30:33.900Z,23.32
2018-05-23T08:31:43.630Z,23.39
2018-05-23T08:32:53.626Z,23.39
2018-05-23T08:34:03.366Z,23.49
2018-05-23T08:35:13.085Z,23.76
2018-05-23T08:36:23.214Z,23.89
2018-05-23T08:37:33.034Z,24.24
2018-05-23T08:38:42.852Z,24.38
2018-05-23T08:39:52.323Z,24.74
2018-05-23T08:41:02.354Z,24.96
2018-05-23T08:42:12.097Z,25.26
2018-05-23T08:43:22.145Z,25.41
2018-05-23T08:44:32.172Z,25.44
2018-05-23T08:45:42.187Z,25.61
2018-05-23T08:46:51.974Z,25.81
2018-05-23T08:48:01.968Z,25.92
2018-05-23T08:49:11.954Z,26.03
2018-05-23T08:50:21.935Z,26.07
2018-05-23T08:51:31.931Z,26.04
2018-05-23T08:52:41.924Z,26.18
2018-05-23T08:53:51.924Z,26.04
2018-05-23T08:55:01.936Z,26.13
2018-05-23T08:56:11.679Z,26.3
2018-05-23T08:57:21.673Z,26.44
2018-05-23T08:58:31.672Z,26.48
2018-05-23T08:59:41.427Z,26.61
2018-05-23T09:00:51.448Z,26.88
2018-05-23T09:02:01.449Z,27.05
2018-05-23T09:03:11.217Z,27.29
2018-05-23T09:04:21.215Z,27.48
2018-05-23T09:05:31.226Z,27.71
2018-05-23T09:06:40.967Z,27.75
2018-05-23T09:07:50.699Z,27.94
2018-05-23T09:09:00.710Z,27.76
2018-05-23T09:10:10.948Z,27.98
2018-05-23T09:11:20.954Z,28.12
2018-05-23T09:12:31.575Z,28.1
2018-05-23T09:13:41.934Z,28.12
2018-05-23T09:14:51.409Z,27.98
2018-05-23T09:16:01.402Z,28.16
2018-05-23T09:17:11.399Z,28.04
2018-05-23T09:18:21.140Z,28.1
2018-05-23T09:19:30.633Z,28.13
2018-05-23T09:20:40.395Z,28.3
2018-05-23T09:21:50.393Z,28.3
2018-05-23T09:23:00.422Z,28.35
2018-05-23T09:24:10.449Z,28.57
2018-05-23T09:25:20.554Z,28.78
2018-05-23T09:26:30.609Z,28.87
2018-05-23T09:27:40.385Z,28.8
2018-05-23T09:28:50.458Z,28.78
2018-05-23T09:30:00.492Z,28.64
2018-05-23T09:31:10.533Z,28.77
2018-05-23T09:32:20.788Z,28.68
2018-05-23T09:33:30.883Z,28.9
2018-05-23T09:34:40.885Z,29.1
2018-05-23T09:35:50.892Z,29.39
2018-05-23T09:37:00.904Z,29.67
2018-05-23T09:38:10.672Z,29.83
2018-05-23T09:39:20.910Z,29.86
2018-05-23T09:40:30.905Z,29.81
2018-05-23T09:41:40.916Z,29.95
2018-05-23T09:42:50.680Z,30.13
2018-05-23T09:44:00.684Z,30.29
2018-05-23T09:45:10.776Z,30.36
2018-05-23T09:46:21.162Z,30.38
2018-05-23T09:47:31.178Z,30.31
2018-05-23T09:48:40.948Z,30.24
2018-05-23T09:49:50.697Z,30.43
2018-05-23T09:51:00.687Z,30.48
2018-05-23T09:52:10.910Z,30.76
2018-05-23T09:53:20.871Z,30.98
2018-05-23T09:54:30.881Z,30.92
2018-05-23T09:55:40.990Z,31.14
2018-05-23T09:56:50.982Z,31.3
2018-05-23T09:58:00.977Z,31.25
2018-05-23T09:59:10.983Z,31.42
2018-05-23T10:00:20.997Z,31.63
2018-05-23T10:01:31.237Z,31.6
2018-05-23T10:02:41.043Z,31.74
2018-05-23T10:03:51.034Z,31.86
2018-05-23T10:05:01.023Z,31.57
2018-05-23T10:06:11.009Z,31.42
2018-05-23T10:07:21.012Z,31.51
2018-05-23T10:08:31.040Z,31.52
2018-05-23T10:09:41.027Z,31.64
2018-05-23T10:10:51.014Z,31.6
2018-05-23T10:12:01.029Z,31.69
2018-05-23T10:13:10.516Z,31.63
2018-05-23T10:14:20.524Z,31.66
2018-05-23T10:15:30.263Z,31.63
2018-05-23T10:16:40.377Z,31.02
2018-05-23T10:17:50.381Z,31.14
2018-05-23T10:19:00.380Z,30.99
2018-05-23T10:20:10.382Z,31.13
2018-05-23T10:21:20.377Z,31.17
2018-05-23T10:22:30.375Z,31.04
2018-05-23T10:23:40.102Z,30.49
2018-05-23T10:24:50.108Z,30.78
2018-05-23T10:26:00.116Z,30.49
2018-05-23T10:27:10.125Z,30.26
2018-05-23T10:28:19.602Z,30.4
2018-05-23T10:29:29.618Z,30.26
2018-05-23T10:30:39.606Z,30.58
2018-05-23T10:31:49.635Z,30.13
2018-05-23T10:32:59.643Z,30.43
2018-05-23T10:34:09.654Z,30.78
2018-05-23T10:35:19.672Z,31.17
2018-05-23T10:36:29.418Z,31.44
2018-05-23T10:37:39.148Z,31.72
2018-05-23T10:38:49.145Z,32.05
2018-05-23T10:39:59.202Z,32.41
2018-05-23T10:41:09.202Z,32.67
2018-05-23T10:42:19.197Z,32.81
2018-05-23T10:43:29.222Z,32.85
2018-05-23T10:44:39.229Z,33.03
2018-05-23T10:45:49.018Z,33.05
2018-05-23T10:46:59.021Z,32.73
2018-05-23T10:48:09.044Z,32.59
2018-05-23T10:49:19.105Z,32.39
2018-05-23T10:50:29.121Z,32.49
2018-05-23T10:51:39.336Z,32.68
2018-05-23T10:52:49.545Z,32.93
2018-05-23T10:53:59.298Z,33.13
2018-05-23T10:55:09.084Z,33.04
2018-05-23T10:56:18.822Z,33.04
2018-05-23T10:57:28.847Z,32.68
2018-05-23T10:58:38.868Z,32.42
2018-05-23T10:59:48.921Z,32.46
2018-05-23T11:00:58.922Z,32.57
2018-05-23T11:02:08.942Z,32.63
2018-05-23T11:03:18.954Z,32.86
2018-05-23T11:04:28.683Z,32.95
2018-05-23T11:05:38.851Z,33.15
2018-05-23T11:06:48.632Z,32.78
2018-05-23T11:07:58.635Z,32.64
2018-05-23T11:09:08.615Z,32.56
2018-05-23T11:10:18.656Z,32.86
2018-05-23T11:11:28.670Z,32.95
2018-05-23T11:12:38.697Z,33.05
2018-05-23T11:13:48.215Z,33.19
2018-05-23T11:14:58.060Z,33.13
2018-05-23T11:16:08.371Z,33.04
2018-05-23T11:17:18.392Z,32.71
2018-05-23T11:18:28.388Z,32.67
2018-05-23T11:19:38.120Z,32.76
2018-05-23T11:20:47.859Z,32.82
2018-05-23T11:21:57.882Z,32.93
2018-05-23T11:23:07.893Z,33.01
2018-05-23T11:24:17.656Z,32.91
2018-05-23T11:25:27.397Z,32.9
2018-05-23T11:26:36.867Z,33.26
2018-05-23T11:27:46.344Z,33.36
2018-05-23T11:28:56.070Z,33.32
2018-05-23T11:30:05.805Z,33.32
2018-05-23T11:31:15.541Z,33.35
2018-05-23T11:32:25.595Z,33.23
2018-05-23T11:33:35.613Z,33.12
2018-05-23T11:34:45.624Z,32.95
2018-05-23T11:35:55.608Z,33.32
2018-05-23T11:37:05.374Z,33.36
2018-05-23T11:38:15.397Z,32.81
2018-05-23T11:39:25.140Z,32.82
2018-05-23T11:40:35.148Z,32.82
2018-05-23T11:41:44.948Z,32.82
2018-05-23T11:42:54.992Z,33.05
2018-05-23T11:44:04.737Z,33.53
2018-05-23T11:45:14.227Z,33.82
2018-05-23T11:46:24.039Z,33.61
2018-05-23T11:47:34.170Z,33.82
2018-05-23T11:48:43.938Z,34.02
2018-05-23T11:49:53.976Z,34.03
2018-05-23T11:51:03.192Z,33.45
2018-05-23T11:52:13.081Z,32.95
2018-05-23T11:53:23.046Z,33.16
2018-05-23T11:54:33.139Z,33.72
2018-05-23T11:55:43.138Z,33.81
2018-05-23T11:56:53.171Z,34.07
2018-05-23T11:58:03.165Z,34.18
2018-05-23T11:59:12.385Z,34.37
2018-05-23T12:00:22.376Z,34.28
2018-05-23T12:01:32.114Z,34.33
2018-05-23T12:02:41.608Z,34.56
2018-05-23T12:03:51.109Z,35.07
2018-05-23T12:05:00.582Z,35.44
2018-05-23T12:06:10.611Z,35.19
2018-05-23T12:07:20.357Z,35.45
2018-05-23T12:08:29.842Z,35.54
2018-05-23T12:09:39.727Z,35.6
2018-05-23T12:10:49.239Z,35.54
2018-05-23T12:11:59.248Z,35.57
2018-05-23T12:13:09.278Z,35.74
2018-05-23T12:14:19.047Z,35.78
2018-05-23T12:15:28.549Z,35.23
2018-05-23T12:16:38.572Z,34.75
2018-05-23T12:17:47.803Z,34.24
2018-05-23T12:18:57.538Z,33.82
2018-05-23T12:20:07.301Z,34.19
2018-05-23T12:21:16.798Z,34.47
2018-05-23T12:22:26.543Z,34.89
2018-05-23T12:23:36.567Z,35.27
2018-05-23T12:24:46.577Z,35.49
2018-05-23T12:25:56.618Z,35.01
2018-05-23T12:27:06.385Z,34.81
2018-05-23T12:28:16.136Z,34.73
2018-05-23T12:29:25.622Z,34.94
2018-05-23T12:30:35.663Z,35.01
2018-05-23T12:31:45.682Z,35.16
2018-05-23T12:32:55.421Z,34.79
2018-05-23T12:34:05.442Z,34.81
2018-05-23T12:35:15.471Z,34.71
2018-05-23T12:36:25.471Z,34.48
2018-05-23T12:37:34.959Z,34.46
2018-05-23T12:38:44.988Z,34.43
2018-05-23T12:39:54.771Z,34.48
2018-05-23T12:41:05.016Z,34.24
2018-05-23T12:42:15.025Z,34.16
2018-05-23T12:43:24.798Z,33.97
2018-05-23T12:44:34.552Z,33.57
2018-05-23T12:45:44.567Z,33.33
2018-05-23T12:46:54.572Z,33.44
2018-05-23T12:48:04.609Z,32.79
2018-05-23T12:49:14.596Z,33.16
2018-05-23T12:50:24.592Z,33.45
2018-05-23T12:51:34.593Z,33.84
2018-05-23T12:52:44.583Z,33.92
2018-05-23T12:53:54.078Z,33.87
2018-05-23T12:55:03.818Z,33.72
2018-05-23T12:56:13.824Z,33.91
2018-05-23T12:57:23.323Z,34.11
2018-05-23T12:58:33.068Z,34.38
2018-05-23T12:59:42.849Z,34.51
2018-05-23T13:00:52.605Z,34.6
2018-05-23T13:02:02.602Z,34.48
2018-05-23T13:03:12.354Z,34.58
2018-05-23T13:04:22.194Z,34.41
2018-05-23T13:05:31.702Z,34.41
2018-05-23T13:06:41.460Z,34.63
2018-05-23T13:07:51.224Z,34.66
2018-05-23T13:09:00.976Z,35.05
2018-05-23T13:10:10.983Z,35.31
2018-05-23T13:11:20.980Z,35.31
2018-05-23T13:12:30.732Z,35.54
2018-05-23T13:13:40.821Z,35.84
2018-05-23T13:14:50.575Z,35.91
2018-05-23T13:16:00.575Z,35.63
2018-05-23T13:17:10.053Z,35.45
2018-05-23T13:18:19.807Z,35.53
2018-05-23T13:19:29.278Z,35.74
2018-05-23T13:20:39.287Z,35.79
2018-05-23T13:21:49.286Z,35.42
2018-05-23T13:22:58.496Z,35.04
2018-05-23T13:24:08.232Z,34.91
2018-05-23T13:25:18.250Z,34.97
2018-05-23T13:26:27.991Z,34.48
2018-05-23T13:27:37.978Z,34.26
2018-05-23T13:28:47.975Z,34.16
2018-05-23T13:29:58.017Z,34.04
2018-05-23T13:31:08.059Z,33.5
2018-05-23T13:32:18.045Z,33.5
2018-05-23T13:33:27.803Z,33.84
2018-05-23T13:34:37.788Z,34.07
2018-05-23T13:35:47.820Z,34.18
2018-05-23T13:36:57.823Z,34.02
2018-05-23T13:38:07.821Z,33.53
2018-05-23T13:39:17.819Z,33.31
2018-05-23T13:40:27.832Z,33.23
2018-05-23T13:41:37.845Z,33.03
2018-05-23T13:42:47.867Z,33.03
2018-05-23T13:43:57.867Z,32.75
2018-05-23T13:45:08.032Z,32.83
2018-05-23T13:46:18.044Z,32.82
2018-05-23T13:47:28.075Z,32.42
2018-05-23T13:48:37.823Z,31.98
2018-05-23T13:49:47.823Z,31.85
2018-05-23T13:50:57.572Z,31.85
2018-05-23T13:52:07.314Z,31.95
2018-05-23T13:53:17.312Z,31.81
2018-05-23T13:54:27.051Z,31.9
2018-05-23T13:55:36.806Z,31.25
2018-05-23T13:56:46.807Z,31.33
2018-05-23T13:57:56.801Z,31.62
2018-05-23T13:59:06.882Z,32.19
2018-05-23T14:00:16.622Z,32.38
2018-05-23T14:01:26.387Z,32.3
2018-05-23T14:02:36.382Z,32.53
2018-05-23T14:03:46.395Z,32.61
2018-05-23T14:04:56.129Z,32.86
2018-05-23T14:06:06.150Z,32.79
2018-05-23T14:07:16.182Z,32.97
2018-05-23T14:08:26.210Z,33.36
2018-05-23T14:09:36.036Z,33.55
2018-05-23T14:10:46.173Z,33.88
2018-05-23T14:11:56.159Z,34.03
2018-05-23T14:13:06.157Z,34.32
2018-05-23T14:14:16.178Z,34.65
2018-05-23T14:15:26.172Z,34.69
2018-05-23T14:16:36.007Z,34.89
2018-05-23T14:17:46.010Z,35.1
2018-05-23T14:18:56.013Z,35.15
2018-05-23T14:20:05.865Z,35.42
2018-05-23T14:21:15.865Z,35.35
2018-05-23T14:22:25.628Z,35.16
2018-05-23T14:23:35.371Z,35.18
2018-05-23T14:24:45.373Z,35.25
2018-05-23T14:25:55.390Z,35.35
2018-05-23T14:27:05.403Z,35.39
2018-05-23T14:28:15.403Z,35.23
2018-05-23T14:29:25.399Z,34.94
2018-05-23T14:30:35.409Z,35.01
2018-05-23T14:31:45.420Z,34.79
2018-05-23T14:32:55.176Z,34.71
2018-05-23T14:34:04.996Z,35.05
2018-05-23T14:35:15.002Z,35.26
2018-05-23T14:36:25.027Z,35.41
2018-05-23T14:37:35.254Z,35.07
2018-05-23T14:38:45.317Z,34.75
2018-05-23T14:39:55.345Z,34.47
2018-05-23T14:41:05.347Z,34.26
2018-05-23T14:42:15.357Z,34.13
2018-05-23T14:43:24.904Z,34.06
2018-05-23T14:44:35.224Z,33.75
2018-05-23T14:45:45.260Z,33.81
2018-05-23T14:46:55.273Z,33.47
2018-05-23T14:48:05.016Z,32.98
2018-05-23T14:49:15.020Z,32.51
2018-05-23T14:50:25.019Z,32.24
2018-05-23T14:51:34.507Z,31.93
2018-05-23T14:52:44.237Z,32.01
2018-05-23T14:53:54.266Z,32.19
2018-05-23T14:55:04.303Z,32.57
2018-05-23T14:56:14.223Z,32.78
2018-05-23T14:57:24.455Z,33.08
2018-05-23T14:58:34.488Z,33.28
2018-05-23T14:59:44.485Z,33.53
2018-05-23T15:00:54.500Z,33.48
2018-05-23T15:02:04.508Z,33.54
2018-05-23T15:03:14.503Z,33.47